DLH4AN EDDM-EDDW
Flight info
| Callsign | DLH4AN |
|---|---|
| Flight time | 0h 57m |
| Altitude | 32000 |
| Route | GIVM6Q GIVMI Y101 IBAGA L610 BIBEG L604 OBISI P605 SAS Z88 VERED VE09B |
| Aircraft | A320/M-SDE3FGHIRWY/LB1 |
Departure
| Time | 2026-04-30 06:27 |
|---|---|
| Airport | Munich Airport (EDDM) |
Arrival
| Time | 2026-04-30 07:24 |
|---|---|
| Airport | Bremen Airport (EDDW) |
| Time | Latitude | Longitude | Altitude | Speed | Heading |
|---|---|---|---|---|---|
| 2026-04-30 06:08 | 48.35643 | 11.79272 | 1486 ft | 0 kts | 263° |
| 2026-04-30 06:18 | 48.35645 | 11.79294 | 1471 ft | 4 kts | 263° |
| 2026-04-30 06:18 | 48.35648 | 11.79335 | 1473 ft | 4 kts | 263° |
| 2026-04-30 06:18 | 48.35650 | 11.79367 | 1477 ft | 4 kts | 270° |
| 2026-04-30 06:18 | 48.35645 | 11.79404 | 1471 ft | 4 kts | 310° |
| 2026-04-30 06:19 | 48.35624 | 11.79424 | 1478 ft | 3 kts | 353° |
| 2026-04-30 06:19 | 48.35606 | 11.79428 | 1474 ft | 0 kts | 353° |
| 2026-04-30 06:21 | 48.35622 | 11.79425 | 1479 ft | 7 kts | 353° |
| 2026-04-30 06:21 | 48.35699 | 11.79412 | 1479 ft | 14 kts | 353° |
| 2026-04-30 06:21 | 48.35802 | 11.79394 | 1476 ft | 16 kts | 354° |
| 2026-04-30 06:22 | 48.35914 | 11.79361 | 1483 ft | 17 kts | 338° |
| 2026-04-30 06:22 | 48.36029 | 11.79327 | 1485 ft | 12 kts | 354° |
| 2026-04-30 06:22 | 48.36089 | 11.79263 | 1479 ft | 11 kts | 271° |
| 2026-04-30 06:22 | 48.36081 | 11.79148 | 1484 ft | 12 kts | 264° |
| 2026-04-30 06:23 | 48.36067 | 11.78974 | 1480 ft | 21 kts | 263° |
| 2026-04-30 06:23 | 48.36050 | 11.78762 | 1473 ft | 20 kts | 263° |
| 2026-04-30 06:23 | 48.36036 | 11.78566 | 1485 ft | 18 kts | 264° |
| 2026-04-30 06:23 | 48.36022 | 11.78382 | 1481 ft | 18 kts | 263° |
| 2026-04-30 06:24 | 48.36005 | 11.78161 | 1473 ft | 22 kts | 263° |
| 2026-04-30 06:24 | 48.35988 | 11.77944 | 1478 ft | 20 kts | 263° |
| 2026-04-30 06:24 | 48.35974 | 11.77756 | 1485 ft | 14 kts | 263° |
| 2026-04-30 06:24 | 48.36016 | 11.77663 | 1480 ft | 12 kts | 351° |
| 2026-04-30 06:25 | 48.36094 | 11.77658 | 1485 ft | 11 kts | 3° |
| 2026-04-30 06:25 | 48.36170 | 11.77742 | 1481 ft | 16 kts | 56° |
| 2026-04-30 06:25 | 48.36236 | 11.77885 | 1483 ft | 17 kts | 54° |
| 2026-04-30 06:25 | 48.36308 | 11.78033 | 1476 ft | 18 kts | 54° |
| 2026-04-30 06:26 | 48.36379 | 11.78189 | 1479 ft | 18 kts | 66° |
| 2026-04-30 06:26 | 48.36407 | 11.78431 | 1485 ft | 44 kts | 83° |
| 2026-04-30 06:26 | 48.36471 | 11.79254 | 1483 ft | 111 kts | 83° |
| 2026-04-30 06:26 | 48.36578 | 11.80638 | 1721 ft | 142 kts | 83° |
| 2026-04-30 06:27 | 48.36698 | 11.82119 | 2496 ft | 146 kts | 84° |
| 2026-04-30 06:27 | 48.36829 | 11.83664 | 3165 ft | 155 kts | 84° |
| 2026-04-30 06:27 | 48.37068 | 11.85305 | 3721 ft | 169 kts | 65° |
| 2026-04-30 06:27 | 48.38069 | 11.86385 | 4275 ft | 197 kts | 16° |
| 2026-04-30 06:28 | 48.39503 | 11.86503 | 4868 ft | 213 kts | 7° |
| 2026-04-30 06:28 | 48.41065 | 11.86436 | 5453 ft | 237 kts | 350° |
| 2026-04-30 06:28 | 48.42540 | 11.85194 | 6103 ft | 259 kts | 316° |
| 2026-04-30 06:28 | 48.43783 | 11.83083 | 6767 ft | 278 kts | 313° |
| 2026-04-30 06:29 | 48.45077 | 11.80793 | 7450 ft | 293 kts | 312° |
| 2026-04-30 06:29 | 48.46404 | 11.78395 | 8230 ft | 303 kts | 311° |
| 2026-04-30 06:29 | 48.47760 | 11.75948 | 9220 ft | 304 kts | 312° |
| 2026-04-30 06:29 | 48.49130 | 11.73503 | 10266 ft | 304 kts | 313° |
| 2026-04-30 06:30 | 48.50496 | 11.71084 | 11018 ft | 314 kts | 314° |
| 2026-04-30 06:30 | 48.51992 | 11.68507 | 11316 ft | 338 kts | 314° |
| 2026-04-30 06:30 | 48.53584 | 11.65775 | 11828 ft | 351 kts | 314° |
| 2026-04-30 06:30 | 48.55397 | 11.63309 | 12585 ft | 351 kts | 330° |
| 2026-04-30 06:31 | 48.57540 | 11.61504 | 13402 ft | 353 kts | 334° |
| 2026-04-30 06:31 | 48.59713 | 11.59735 | 14223 ft | 356 kts | 334° |
| 2026-04-30 06:31 | 48.61908 | 11.57949 | 14957 ft | 359 kts | 335° |
| 2026-04-30 06:31 | 48.64120 | 11.56147 | 15694 ft | 361 kts | 335° |
| 2026-04-30 06:32 | 48.66323 | 11.54354 | 16413 ft | 364 kts | 335° |
| 2026-04-30 06:32 | 48.68561 | 11.52525 | 17125 ft | 366 kts | 335° |
| 2026-04-30 06:32 | 48.70809 | 11.50685 | 17831 ft | 368 kts | 335° |
| 2026-04-30 06:32 | 48.73076 | 11.48827 | 18527 ft | 371 kts | 336° |
| 2026-04-30 06:33 | 48.75354 | 11.46959 | 19144 ft | 373 kts | 336° |
| 2026-04-30 06:33 | 48.77654 | 11.45073 | 19727 ft | 376 kts | 336° |
| 2026-04-30 06:33 | 48.79932 | 11.43200 | 20289 ft | 379 kts | 336° |
| 2026-04-30 06:33 | 48.82256 | 11.41286 | 20832 ft | 381 kts | 336° |
| 2026-04-30 06:34 | 48.84599 | 11.39357 | 21387 ft | 384 kts | 336° |
| 2026-04-30 06:34 | 48.86965 | 11.37406 | 21936 ft | 387 kts | 337° |
| 2026-04-30 06:34 | 48.89344 | 11.35446 | 22469 ft | 390 kts | 337° |
| 2026-04-30 06:34 | 48.91743 | 11.33470 | 22995 ft | 393 kts | 337° |
| 2026-04-30 06:35 | 48.94171 | 11.31467 | 23542 ft | 396 kts | 337° |
| 2026-04-30 06:35 | 48.96611 | 11.29452 | 24044 ft | 399 kts | 337° |
| 2026-04-30 06:35 | 48.99033 | 11.27445 | 24464 ft | 402 kts | 337° |
| 2026-04-30 06:35 | 49.01503 | 11.25391 | 24884 ft | 405 kts | 338° |
| 2026-04-30 06:36 | 49.03990 | 11.23323 | 25288 ft | 407 kts | 338° |
| 2026-04-30 06:36 | 49.06489 | 11.21246 | 25685 ft | 410 kts | 338° |
| 2026-04-30 06:36 | 49.09003 | 11.19153 | 26077 ft | 412 kts | 338° |
| 2026-04-30 06:36 | 49.11538 | 11.17039 | 26468 ft | 415 kts | 338° |
| 2026-04-30 06:37 | 49.14086 | 11.14912 | 26864 ft | 418 kts | 338° |
| 2026-04-30 06:37 | 49.16618 | 11.12792 | 27260 ft | 421 kts | 338° |
| 2026-04-30 06:37 | 49.19199 | 11.10626 | 27650 ft | 423 kts | 338° |
| 2026-04-30 06:37 | 49.21791 | 11.08452 | 28045 ft | 426 kts | 338° |
| 2026-04-30 06:38 | 49.24401 | 11.06264 | 28431 ft | 429 kts | 338° |
| 2026-04-30 06:38 | 49.27032 | 11.04056 | 28788 ft | 431 kts | 338° |
| 2026-04-30 06:38 | 49.29676 | 11.01838 | 29136 ft | 434 kts | 338° |
| 2026-04-30 06:38 | 49.32331 | 10.99608 | 29473 ft | 436 kts | 338° |
| 2026-04-30 06:39 | 49.34977 | 10.97378 | 29807 ft | 439 kts | 338° |
| 2026-04-30 06:39 | 49.37659 | 10.95115 | 30132 ft | 441 kts | 337° |
| 2026-04-30 06:39 | 49.40284 | 10.92575 | 30449 ft | 448 kts | 332° |
| 2026-04-30 06:39 | 49.42853 | 10.89831 | 30746 ft | 450 kts | 331° |
| 2026-04-30 06:40 | 49.45435 | 10.87066 | 31049 ft | 451 kts | 332° |
| 2026-04-30 06:40 | 49.48006 | 10.84309 | 31463 ft | 449 kts | 332° |
| 2026-04-30 06:40 | 49.50567 | 10.81557 | 31851 ft | 448 kts | 332° |
| 2026-04-30 06:40 | 49.53131 | 10.78810 | 32264 ft | 447 kts | 332° |
| 2026-04-30 06:41 | 49.55658 | 10.76109 | 32425 ft | 446 kts | 332° |
| 2026-04-30 06:41 | 49.60702 | 10.70705 | 32438 ft | 438 kts | 332° |
| 2026-04-30 06:42 | 49.65713 | 10.65341 | 32437 ft | 437 kts | 332° |
| 2026-04-30 06:42 | 49.70717 | 10.59972 | 32440 ft | 437 kts | 332° |
| 2026-04-30 06:43 | 49.75689 | 10.54645 | 32442 ft | 436 kts | 333° |
| 2026-04-30 06:43 | 49.80813 | 10.49642 | 32436 ft | 433 kts | 335° |
| 2026-04-30 06:44 | 49.85994 | 10.44838 | 32435 ft | 433 kts | 335° |
| 2026-04-30 06:44 | 49.91128 | 10.39984 | 32429 ft | 433 kts | 335° |
| 2026-04-30 06:45 | 49.96270 | 10.35020 | 32427 ft | 433 kts | 335° |
| 2026-04-30 06:45 | 50.01396 | 10.30037 | 32427 ft | 433 kts | 335° |
| 2026-04-30 06:46 | 50.06551 | 10.25352 | 32423 ft | 427 kts | 342° |
| 2026-04-30 06:46 | 50.12164 | 10.22880 | 32428 ft | 416 kts | 355° |
| 2026-04-30 06:47 | 50.17871 | 10.21228 | 32433 ft | 417 kts | 355° |
| 2026-04-30 06:47 | 50.23552 | 10.19556 | 32437 ft | 417 kts | 355° |
| 2026-04-30 06:48 | 50.29279 | 10.17857 | 32441 ft | 418 kts | 355° |
| 2026-04-30 06:48 | 50.34997 | 10.16164 | 32444 ft | 418 kts | 355° |
| 2026-04-30 06:49 | 50.40664 | 10.14168 | 32449 ft | 425 kts | 346° |
| 2026-04-30 06:49 | 50.43382 | 10.12197 | 32445 ft | 433 kts | 335° |
| 2026-04-30 06:49 | 50.45868 | 10.09429 | 32450 ft | 442 kts | 325° |
| 2026-04-30 06:50 | 50.50163 | 10.02355 | 32448 ft | 448 kts | 319° |
| 2026-04-30 06:50 | 50.54361 | 9.95145 | 32451 ft | 449 kts | 318° |
| 2026-04-30 06:51 | 50.58452 | 9.87669 | 32452 ft | 451 kts | 316° |
| 2026-04-30 06:51 | 50.62432 | 9.80090 | 32451 ft | 448 kts | 320° |
| 2026-04-30 06:52 | 50.67306 | 9.74358 | 32446 ft | 429 kts | 340° |
| 2026-04-30 06:52 | 50.72912 | 9.71676 | 32450 ft | 415 kts | 358° |
| 2026-04-30 06:53 | 50.78625 | 9.71039 | 32453 ft | 413 kts | 1° |
| 2026-04-30 06:53 | 50.83450 | 9.70537 | 32457 ft | 414 kts | 1° |
| 2026-04-30 06:54 | 50.89171 | 9.69975 | 32460 ft | 413 kts | 2° |
| 2026-04-30 06:54 | 50.94913 | 9.69761 | 32466 ft | 412 kts | 4° |
| 2026-04-30 06:55 | 51.00652 | 9.69684 | 32471 ft | 412 kts | 4° |
| 2026-04-30 06:55 | 51.06367 | 9.69556 | 32477 ft | 412 kts | 4° |
| 2026-04-30 06:56 | 51.12117 | 9.69366 | 32480 ft | 412 kts | 3° |
| 2026-04-30 06:56 | 51.17865 | 9.69173 | 32478 ft | 412 kts | 3° |
| 2026-04-30 06:57 | 51.23525 | 9.69590 | 32481 ft | 407 kts | 10° |
| 2026-04-30 06:57 | 51.29170 | 9.70521 | 32475 ft | 407 kts | 10° |
| 2026-04-30 06:58 | 51.34825 | 9.71435 | 32474 ft | 408 kts | 9° |
| 2026-04-30 06:58 | 51.40484 | 9.72350 | 32476 ft | 408 kts | 9° |
| 2026-04-30 06:59 | 51.46109 | 9.73258 | 32476 ft | 408 kts | 9° |
| 2026-04-30 06:59 | 51.51748 | 9.74237 | 32477 ft | 407 kts | 11° |
| 2026-04-30 07:00 | 51.57383 | 9.75331 | 32475 ft | 407 kts | 11° |
| 2026-04-30 07:00 | 51.63033 | 9.76440 | 32481 ft | 408 kts | 11° |
| 2026-04-30 07:01 | 51.68646 | 9.77506 | 32485 ft | 408 kts | 10° |
| 2026-04-30 07:01 | 51.74299 | 9.78572 | 32489 ft | 408 kts | 10° |
| 2026-04-30 07:02 | 51.80000 | 9.78329 | 32331 ft | 424 kts | 350° |
| 2026-04-30 07:02 | 51.82868 | 9.77058 | 31732 ft | 431 kts | 349° |
| 2026-04-30 07:02 | 51.85768 | 9.75668 | 31130 ft | 435 kts | 348° |
| 2026-04-30 07:02 | 51.88669 | 9.74209 | 30535 ft | 437 kts | 347° |
| 2026-04-30 07:03 | 51.91586 | 9.72718 | 29856 ft | 439 kts | 347° |
| 2026-04-30 07:03 | 51.94478 | 9.71244 | 29189 ft | 441 kts | 347° |
| 2026-04-30 07:03 | 51.97427 | 9.69761 | 28526 ft | 443 kts | 347° |
| 2026-04-30 07:03 | 52.00381 | 9.68298 | 27897 ft | 445 kts | 347° |
| 2026-04-30 07:04 | 52.03350 | 9.66837 | 27270 ft | 443 kts | 347° |
| 2026-04-30 07:04 | 52.06302 | 9.65387 | 26663 ft | 440 kts | 347° |
| 2026-04-30 07:04 | 52.09234 | 9.63947 | 26054 ft | 437 kts | 347° |
| 2026-04-30 07:04 | 52.12136 | 9.62515 | 25476 ft | 434 kts | 347° |
| 2026-04-30 07:05 | 52.17853 | 9.59680 | 24398 ft | 428 kts | 347° |
| 2026-04-30 07:05 | 52.20709 | 9.58260 | 23945 ft | 427 kts | 347° |
| 2026-04-30 07:05 | 52.23542 | 9.56850 | 23454 ft | 424 kts | 347° |
| 2026-04-30 07:06 | 52.26360 | 9.55445 | 22954 ft | 421 kts | 347° |
| 2026-04-30 07:06 | 52.29152 | 9.54054 | 22476 ft | 418 kts | 347° |
| 2026-04-30 07:06 | 52.31940 | 9.52665 | 22001 ft | 416 kts | 347° |
| 2026-04-30 07:06 | 52.34704 | 9.51289 | 21546 ft | 414 kts | 347° |
| 2026-04-30 07:07 | 52.37428 | 9.49927 | 21092 ft | 412 kts | 347° |
| 2026-04-30 07:07 | 52.40161 | 9.48555 | 20645 ft | 409 kts | 347° |
| 2026-04-30 07:07 | 52.42878 | 9.47186 | 20200 ft | 407 kts | 347° |
| 2026-04-30 07:07 | 52.45580 | 9.45824 | 19769 ft | 405 kts | 347° |
| 2026-04-30 07:08 | 52.48266 | 9.44468 | 19341 ft | 402 kts | 348° |
| 2026-04-30 07:08 | 52.50949 | 9.43112 | 18907 ft | 400 kts | 348° |
| 2026-04-30 07:08 | 52.53606 | 9.41770 | 18445 ft | 398 kts | 348° |
| 2026-04-30 07:08 | 52.56246 | 9.40430 | 17961 ft | 395 kts | 348° |
| 2026-04-30 07:09 | 52.58838 | 9.39111 | 17492 ft | 393 kts | 348° |
| 2026-04-30 07:09 | 52.61441 | 9.37791 | 17029 ft | 390 kts | 348° |
| 2026-04-30 07:09 | 52.64019 | 9.36449 | 16572 ft | 388 kts | 347° |
| 2026-04-30 07:09 | 52.66574 | 9.34993 | 16117 ft | 387 kts | 345° |
| 2026-04-30 07:10 | 52.69106 | 9.33460 | 15665 ft | 385 kts | 345° |
| 2026-04-30 07:10 | 52.71611 | 9.31908 | 15231 ft | 382 kts | 344° |
| 2026-04-30 07:10 | 52.74069 | 9.30381 | 14793 ft | 380 kts | 344° |
| 2026-04-30 07:10 | 52.76547 | 9.28853 | 14378 ft | 378 kts | 344° |
| 2026-04-30 07:11 | 52.78947 | 9.27389 | 13996 ft | 376 kts | 345° |
| 2026-04-30 07:11 | 52.81396 | 9.25909 | 13580 ft | 373 kts | 345° |
| 2026-04-30 07:11 | 52.83833 | 9.24445 | 13166 ft | 372 kts | 345° |
| 2026-04-30 07:11 | 52.86255 | 9.22989 | 12750 ft | 365 kts | 345° |
| 2026-04-30 07:12 | 52.88620 | 9.21563 | 12351 ft | 359 kts | 345° |
| 2026-04-30 07:12 | 52.90972 | 9.20146 | 11935 ft | 357 kts | 345° |
| 2026-04-30 07:12 | 52.93300 | 9.18741 | 11538 ft | 355 kts | 345° |
| 2026-04-30 07:12 | 52.95481 | 9.16899 | 11151 ft | 362 kts | 326° |
| 2026-04-30 07:13 | 52.97071 | 9.13609 | 10759 ft | 373 kts | 298° |
| 2026-04-30 07:13 | 52.97762 | 9.09435 | 10376 ft | 377 kts | 278° |
| 2026-04-30 07:13 | 52.97800 | 9.05078 | 9940 ft | 378 kts | 267° |
| 2026-04-30 07:13 | 52.97506 | 9.00754 | 9522 ft | 376 kts | 262° |
| 2026-04-30 07:14 | 52.97124 | 8.96480 | 9106 ft | 373 kts | 262° |
| 2026-04-30 07:14 | 52.96789 | 8.92218 | 8692 ft | 369 kts | 264° |
| 2026-04-30 07:14 | 52.96551 | 8.88016 | 8311 ft | 361 kts | 266° |
| 2026-04-30 07:14 | 52.96404 | 8.83975 | 8007 ft | 351 kts | 268° |
| 2026-04-30 07:15 | 52.96314 | 8.79983 | 7711 ft | 342 kts | 269° |
| 2026-04-30 07:15 | 52.96249 | 8.76080 | 7414 ft | 333 kts | 269° |
| 2026-04-30 07:15 | 52.96188 | 8.72266 | 7119 ft | 326 kts | 269° |
| 2026-04-30 07:15 | 52.96123 | 8.68541 | 6818 ft | 319 kts | 268° |
| 2026-04-30 07:16 | 52.96049 | 8.64898 | 6505 ft | 312 kts | 268° |
| 2026-04-30 07:16 | 52.95968 | 8.61329 | 6193 ft | 306 kts | 268° |
| 2026-04-30 07:16 | 52.95883 | 8.57866 | 5885 ft | 299 kts | 267° |
| 2026-04-30 07:16 | 52.95798 | 8.54511 | 5575 ft | 283 kts | 267° |
| 2026-04-30 07:17 | 52.95716 | 8.51315 | 5196 ft | 270 kts | 266° |
| 2026-04-30 07:17 | 52.95636 | 8.48258 | 4800 ft | 261 kts | 266° |
| 2026-04-30 07:17 | 52.96253 | 8.42608 | 4216 ft | 248 kts | 304° |
| 2026-04-30 07:18 | 52.97432 | 8.40617 | 3984 ft | 239 kts | 331° |
| 2026-04-30 07:18 | 52.98945 | 8.39615 | 3765 ft | 229 kts | 355° |
| 2026-04-30 07:18 | 53.00487 | 8.39624 | 3597 ft | 222 kts | 17° |
| 2026-04-30 07:18 | 53.01896 | 8.40533 | 3428 ft | 213 kts | 37° |
| 2026-04-30 07:19 | 53.02984 | 8.42135 | 3300 ft | 206 kts | 57° |
| 2026-04-30 07:19 | 53.03658 | 8.44157 | 3173 ft | 197 kts | 75° |
| 2026-04-30 07:19 | 53.03901 | 8.46344 | 3076 ft | 190 kts | 90° |
| 2026-04-30 07:19 | 53.03955 | 8.48518 | 2997 ft | 186 kts | 90° |
| 2026-04-30 07:20 | 53.04009 | 8.50621 | 2995 ft | 176 kts | 90° |
| 2026-04-30 07:20 | 53.04059 | 8.52628 | 2966 ft | 172 kts | 90° |
| 2026-04-30 07:20 | 53.04108 | 8.54586 | 2784 ft | 170 kts | 90° |
| 2026-04-30 07:20 | 53.04157 | 8.56534 | 2569 ft | 166 kts | 90° |
| 2026-04-30 07:21 | 53.04204 | 8.58458 | 2346 ft | 165 kts | 91° |
| 2026-04-30 07:21 | 53.04251 | 8.60362 | 2126 ft | 163 kts | 90° |
| 2026-04-30 07:21 | 53.04296 | 8.62194 | 1909 ft | 152 kts | 90° |
| 2026-04-30 07:21 | 53.04337 | 8.63826 | 1714 ft | 136 kts | 91° |
| 2026-04-30 07:22 | 53.04409 | 8.66859 | 1356 ft | 130 kts | 91° |
| 2026-04-30 07:22 | 53.04445 | 8.68357 | 1163 ft | 129 kts | 91° |
| 2026-04-30 07:22 | 53.04479 | 8.69846 | 1001 ft | 129 kts | 91° |
| 2026-04-30 07:23 | 53.04505 | 8.71195 | 864 ft | 130 kts | 90° |
| 2026-04-30 07:23 | 53.04548 | 8.72703 | 647 ft | 130 kts | 90° |
| 2026-04-30 07:23 | 53.04585 | 8.74207 | 434 ft | 131 kts | 90° |
| 2026-04-30 07:23 | 53.04611 | 8.75213 | 317 ft | 130 kts | 89° |
| 2026-04-30 07:24 | 53.04650 | 8.77158 | 87 ft | 126 kts | 90° |
| 2026-04-30 07:24 | 53.04677 | 8.78507 | 20 ft | 99 kts | 87° |
| 2026-04-30 07:24 | 53.04699 | 8.79390 | 20 ft | 56 kts | 88° |
| 2026-04-30 07:24 | 53.04711 | 8.79802 | 19 ft | 28 kts | 87° |
| 2026-04-30 07:25 | 53.04739 | 8.79957 | 21 ft | 14 kts | 36° |
| 2026-04-30 07:25 | 53.04819 | 8.79970 | 21 ft | 10 kts | 340° |
| 2026-04-30 07:25 | 53.04855 | 8.79928 | 19 ft | 9 kts | 313° |
| 2026-04-30 07:25 | 53.04876 | 8.79828 | 19 ft | 12 kts | 269° |
| 2026-04-30 07:26 | 53.04871 | 8.79600 | 19 ft | 24 kts | 267° |
| 2026-04-30 07:26 | 53.04863 | 8.79307 | 19 ft | 27 kts | 268° |
| 2026-04-30 07:26 | 53.04858 | 8.79055 | 19 ft | 19 kts | 268° |
| 2026-04-30 07:26 | 53.04869 | 8.78894 | 20 ft | 12 kts | 308° |
| 2026-04-30 07:27 | 53.04932 | 8.78804 | 19 ft | 11 kts | 320° |
| 2026-04-30 07:27 | 53.04989 | 8.78720 | 19 ft | 10 kts | 308° |
| 2026-04-30 07:27 | 53.05013 | 8.78612 | 19 ft | 10 kts | 292° |
| 2026-04-30 07:27 | 53.05062 | 8.78533 | 19 ft | 11 kts | 319° |
| 2026-04-30 07:28 | 53.05117 | 8.78459 | 19 ft | 8 kts | 338° |
| 2026-04-30 07:28 | 53.05157 | 8.78504 | 19 ft | 4 kts | 48° |
| 2026-04-30 07:28 | 53.05173 | 8.78534 | 19 ft | 3 kts | 49° |
| 2026-04-30 07:28 | 53.05174 | 8.78534 | 19 ft | 0 kts | 49° |